createdAt,value
2018-09-15T00:03:03.877Z,101641.23
2018-09-15T00:07:58.364Z,101636.45
2018-09-15T00:12:52.948Z,101626.08
2018-09-15T00:17:48.250Z,101634.77
2018-09-15T00:22:43.055Z,101633.45
2018-09-15T00:27:37.731Z,101634.22
2018-09-15T00:32:32.404Z,101633.56
2018-09-15T00:37:26.906Z,101632.43
2018-09-15T00:42:21.370Z,101634.17
2018-09-15T00:47:16.060Z,101638.84
2018-09-15T00:52:10.536Z,101647.16
2018-09-15T00:57:05.286Z,101650.90
2018-09-15T01:02:00.024Z,101653.50
2018-09-15T01:06:54.766Z,101656.00
2018-09-15T01:11:49.792Z,101657.23
2018-09-15T01:16:44.424Z,101662.40
2018-09-15T01:21:39.026Z,101667.73
2018-09-15T01:26:33.657Z,101665.73
2018-09-15T01:31:28.857Z,101669.70
2018-09-15T01:36:24.567Z,101675.69
2018-09-15T01:41:19.088Z,101680.95
2018-09-15T01:46:14.395Z,101676.63
2018-09-15T01:51:09.711Z,101676.76
2018-09-15T01:56:04.204Z,101679.62
2018-09-15T02:00:58.709Z,101677.78
2018-09-15T02:05:53.374Z,101677.15
2018-09-15T02:10:47.824Z,101677.47
2018-09-15T02:15:42.601Z,101676.80
2018-09-15T02:20:37.070Z,101671.11
2018-09-15T02:25:31.629Z,101666.55
2018-09-15T02:30:26.144Z,101674.86
2018-09-15T02:35:20.624Z,101674.79
2018-09-15T02:40:15.222Z,101678.16
2018-09-15T02:45:09.822Z,101675.91
2018-09-15T02:50:04.596Z,101682.44
2018-09-15T02:54:59.076Z,101684.84
2018-09-15T02:59:54.069Z,101696.11
2018-09-15T03:04:48.639Z,101687.92
2018-09-15T03:09:43.091Z,101689.87
2018-09-15T03:14:37.549Z,101687.05
2018-09-15T03:19:32.043Z,101682.89
2018-09-15T03:24:26.634Z,101684.16
2018-09-15T03:29:21.164Z,101687.06
2018-09-15T03:34:15.620Z,101690.80
2018-09-15T03:39:11.776Z,101691.98
2018-09-15T03:44:06.244Z,101695.87
2018-09-15T03:49:00.788Z,101692.53
2018-09-15T03:53:55.250Z,101695.34
2018-09-15T03:58:49.710Z,101701.66
2018-09-15T04:03:44.481Z,101703.29
2018-09-15T04:08:39.104Z,101702.50
2018-09-15T04:13:33.566Z,101702.20
2018-09-15T04:18:28.020Z,101709.22
2018-09-15T04:23:22.475Z,101715.77
2018-09-15T04:28:16.983Z,101720.70
2018-09-15T04:33:11.648Z,101725.79
2018-09-15T04:38:06.712Z,101732.58
2018-09-15T04:43:01.737Z,101730.99
2018-09-15T04:47:56.189Z,101731.30
2018-09-15T04:52:50.683Z,101729.25
2018-09-15T04:57:45.347Z,101730.34
2018-09-15T05:02:39.798Z,101730.95
2018-09-15T05:07:34.254Z,101731.10
2018-09-15T05:12:28.772Z,101744.06
2018-09-15T05:17:23.522Z,101750.28
2018-09-15T05:22:18.104Z,101753.42
2018-09-15T05:27:12.738Z,101760.83
2018-09-15T05:32:07.454Z,101768.64
2018-09-15T05:37:02.198Z,101760.00
2018-09-15T05:41:56.852Z,101761.83
2018-09-15T05:46:51.302Z,101764.90
2018-09-15T05:51:45.861Z,101768.73
2018-09-15T05:56:40.399Z,101775.33
2018-09-15T06:01:34.932Z,101776.45
2018-09-15T06:06:30.223Z,101778.71
2018-09-15T06:11:25.068Z,101783.30
2018-09-15T06:16:19.610Z,101788.30
2018-09-15T06:21:14.316Z,101801.33
2018-09-15T06:26:10.242Z,101807.16
2018-09-15T06:31:04.733Z,101805.28
2018-09-15T06:35:59.560Z,101802.93
2018-09-15T06:40:54.193Z,101808.83
2018-09-15T06:45:48.900Z,101808.42
2018-09-15T06:50:43.693Z,101810.34
2018-09-15T06:55:38.216Z,101816.40
2018-09-15T07:00:33.009Z,101819.58
2018-09-15T07:05:28.049Z,101824.31
2018-09-15T07:10:23.255Z,101831.45
2018-09-15T07:15:18.184Z,101836.05
2018-09-15T07:20:13.207Z,101843.05
2018-09-15T07:25:08.432Z,101840.01
2018-09-15T07:30:03.205Z,101852.34
2018-09-15T07:34:57.982Z,101856.94
2018-09-15T07:39:52.697Z,101849.72
2018-09-15T07:44:47.800Z,101864.55
2018-09-15T07:49:42.582Z,101866.78
2018-09-15T07:54:37.640Z,101867.62
2018-09-15T07:59:32.512Z,101869.37
2018-09-15T08:04:27.293Z,101866.53
2018-09-15T08:09:22.052Z,101869.23
2018-09-15T08:14:16.827Z,101867.49
2018-09-15T08:19:11.899Z,101873.94
2018-09-15T08:24:07.326Z,101874.02
2018-09-15T08:29:02.069Z,101876.03
2018-09-15T08:33:56.894Z,101879.48
2018-09-15T08:38:51.902Z,101882.09
2018-09-15T08:43:46.802Z,101878.21
2018-09-15T08:48:42.102Z,101887.45
2018-09-15T08:53:36.916Z,101891.59
2018-09-15T08:58:31.677Z,101893.62
2018-09-15T09:03:26.437Z,101884.77
2018-09-15T09:08:21.553Z,101893.84
2018-09-15T09:13:16.568Z,101898.02
2018-09-15T09:18:11.696Z,101891.67
2018-09-15T09:23:06.700Z,101896.34
2018-09-15T09:28:01.587Z,101893.30
2018-09-15T09:32:56.484Z,101893.95
2018-09-15T09:37:51.270Z,101899.42
2018-09-15T09:42:46.048Z,101898.52
2018-09-15T09:47:41.286Z,101900.12
2018-09-15T09:52:36.283Z,101910.30
2018-09-15T09:57:31.038Z,101904.25
2018-09-15T10:02:26.131Z,101897.99
2018-09-15T10:07:21.542Z,101896.31
2018-09-15T10:12:16.408Z,101900.80
2018-09-15T10:17:11.068Z,101893.42
2018-09-15T10:22:05.569Z,101898.08
2018-09-15T10:27:00.043Z,101901.37
2018-09-15T10:31:54.553Z,101900.91
2018-09-15T10:36:49.694Z,101895.45
2018-09-15T10:41:44.174Z,101893.27
2018-09-15T10:46:39.197Z,101898.00
2018-09-15T10:51:33.780Z,101887.33
2018-09-15T10:56:28.265Z,101889.17
2018-09-15T11:01:22.724Z,101892.94
2018-09-15T11:06:17.247Z,101892.23
2018-09-15T11:11:11.725Z,101891.78
2018-09-15T11:16:06.345Z,101883.34
2018-09-15T11:21:01.484Z,101888.48
2018-09-15T11:25:55.996Z,101880.17
2018-09-15T11:30:50.577Z,101882.88
2018-09-15T11:35:45.109Z,101885.31
2018-09-15T11:40:40.018Z,101886.30
2018-09-15T11:45:34.706Z,101889.01
2018-09-15T11:50:29.600Z,101890.09
2018-09-15T11:55:24.756Z,101887.25
2018-09-15T12:00:26.272Z,101876.80
2018-09-15T12:05:21.617Z,101884.20
2018-09-15T12:10:16.445Z,101888.06
2018-09-15T12:15:10.994Z,101876.80
2018-09-15T12:20:05.898Z,101875.45
2018-09-15T12:25:00.874Z,101876.73
2018-09-15T12:29:56.678Z,101877.56
2018-09-15T12:39:44.859Z,101869.97
2018-09-15T12:44:39.382Z,101870.41
2018-09-15T12:49:34.159Z,101878.30
2018-09-15T12:54:29.033Z,101875.74
2018-09-15T12:59:23.615Z,101883.29
2018-09-15T13:04:18.079Z,101878.89
2018-09-15T13:09:13.482Z,101884.81
2018-09-15T13:14:08.481Z,101894.66
2018-09-15T13:19:03.419Z,101887.91
2018-09-15T13:23:57.913Z,101888.64
2018-09-15T13:28:52.530Z,101869.92
2018-09-15T13:33:47.317Z,101859.60
2018-09-15T13:38:41.759Z,101858.47
2018-09-15T13:43:36.268Z,101859.09
2018-09-15T13:48:30.953Z,101856.97
2018-09-15T13:53:25.523Z,101855.58
2018-09-15T13:58:20.139Z,101851.69
2018-09-15T14:03:15.004Z,101856.40
2018-09-15T14:08:10.196Z,101865.58
2018-09-15T14:13:05.053Z,101861.75
2018-09-15T14:18:00.063Z,101863.63
2018-09-15T14:22:55.031Z,101870.09
2018-09-15T14:27:50.237Z,101873.84
2018-09-15T14:32:44.745Z,101879.48
2018-09-15T14:37:39.789Z,101894.92
2018-09-15T14:42:34.875Z,101889.12
2018-09-15T14:47:29.875Z,101879.03
2018-09-15T14:52:25.778Z,101880.64
2018-09-15T14:57:21.368Z,101873.04
2018-09-15T15:02:15.950Z,101873.72
2018-09-15T15:07:10.401Z,101873.77
2018-09-15T15:12:04.878Z,101882.22
2018-09-15T15:16:59.379Z,101878.52
2018-09-15T15:21:54.223Z,101881.67
2018-09-15T15:26:48.715Z,101878.21
2018-09-15T15:31:43.187Z,101873.10
2018-09-15T15:36:37.827Z,101874.83
2018-09-15T15:41:32.292Z,101874.83
2018-09-15T15:46:26.870Z,101878.38
2018-09-15T15:51:21.612Z,101876.08
2018-09-15T15:56:16.596Z,101872.41
2018-09-15T16:01:12.069Z,101869.11
2018-09-15T16:06:06.548Z,101867.97
2018-09-15T16:11:01.365Z,101878.13
2018-09-15T16:15:58.297Z,101878.89
2018-09-15T16:20:53.247Z,101876.05
2018-09-15T16:25:48.030Z,101873.34
2018-09-15T16:30:42.514Z,101872.11
2018-09-15T16:35:39.366Z,101871.06
2018-09-15T16:40:37.543Z,101866.02
2018-09-15T16:45:36.603Z,101869.66
2018-09-15T16:50:32.665Z,101870.20
2018-09-15T16:55:28.636Z,101877.97
2018-09-15T17:00:26.273Z,101875.46
2018-09-15T17:05:22.871Z,101880.13
2018-09-15T17:10:19.771Z,101880.87
2018-09-15T17:15:16.381Z,101871.34
2018-09-15T17:20:16.047Z,101870.37
2018-09-15T17:25:12.300Z,101872.06
2018-09-15T17:30:08.377Z,101876.02
2018-09-15T17:35:04.155Z,101884.85
2018-09-15T17:39:59.905Z,101884.80
2018-09-15T17:44:55.036Z,101894.56
2018-09-15T17:49:50.976Z,101901.03
2018-09-15T17:54:47.514Z,101904.44
2018-09-15T17:59:42.754Z,101902.38
2018-09-15T18:04:38.015Z,101910.08
2018-09-15T18:09:33.126Z,101909.04
2018-09-15T18:14:28.533Z,101909.73
2018-09-15T18:19:24.123Z,101916.04
2018-09-15T18:24:19.535Z,101922.81
2018-09-15T18:29:16.507Z,101922.05
2018-09-15T18:34:12.353Z,101922.64
2018-09-15T18:39:10.826Z,101928.42
2018-09-15T18:44:05.637Z,101931.27
2018-09-15T18:49:00.562Z,101930.41
2018-09-15T18:53:55.324Z,101935.34
2018-09-15T18:58:49.858Z,101945.16
2018-09-15T19:03:47.258Z,101949.17
2018-09-15T19:08:43.035Z,101953.91
2018-09-15T19:13:37.879Z,101956.08
2018-09-15T19:18:33.297Z,101955.98
2018-09-15T19:23:28.538Z,101960.17
2018-09-15T19:28:23.536Z,101959.07
2018-09-15T19:33:18.606Z,101955.07
2018-09-15T19:38:13.824Z,101967.08
2018-09-15T19:43:11.691Z,101964.41
2018-09-15T19:48:07.331Z,101969.00
2018-09-15T19:53:02.845Z,101969.27
2018-09-15T19:57:58.639Z,101969.05
2018-09-15T20:02:54.110Z,101972.77
2018-09-15T20:07:51.612Z,101975.20
2018-09-15T20:12:48.128Z,101977.67
2018-09-15T20:17:41.466Z,101976.05
2018-09-15T20:22:42.376Z,101981.48
2018-09-15T20:28:21.724Z,101988.90
2018-09-15T20:33:16.671Z,101979.37
2018-09-15T20:38:12.068Z,101981.42
2018-09-15T20:43:06.952Z,101980.61
2018-09-15T20:48:02.157Z,101989.57
2018-09-15T20:52:57.008Z,101996.41
2018-09-15T20:57:52.735Z,101989.69
2018-09-15T21:02:47.696Z,101984.79
2018-09-15T21:07:42.672Z,101982.55
2018-09-15T21:12:37.343Z,101987.77
2018-09-15T21:17:32.228Z,101994.37
2018-09-15T21:22:27.384Z,101990.42
2018-09-15T21:27:22.284Z,101984.81
2018-09-15T21:32:17.150Z,101991.64
2018-09-15T21:37:11.864Z,102003.75
2018-09-15T21:42:06.856Z,102001.80
2018-09-15T21:47:01.525Z,102000.08
2018-09-15T21:51:56.341Z,101994.75
2018-09-15T21:56:51.872Z,101997.31
2018-09-15T22:01:46.815Z,102009.95
2018-09-15T22:06:42.213Z,102004.86
2018-09-15T22:11:37.234Z,101998.75
2018-09-15T22:16:32.466Z,102003.70
2018-09-15T22:21:27.689Z,102002.91
2018-09-15T22:26:22.583Z,102017.63
2018-09-15T22:31:17.076Z,102011.20
2018-09-15T22:36:11.598Z,102010.33
2018-09-15T22:41:07.671Z,102015.12
2018-09-15T22:46:02.329Z,102008.77
2018-09-15T22:50:57.650Z,102005.56
2018-09-15T22:55:52.771Z,102006.81
2018-09-15T23:00:47.916Z,102001.11
2018-09-15T23:05:43.152Z,101998.98
2018-09-15T23:10:38.273Z,102007.97
2018-09-15T23:15:33.111Z,102006.80
2018-09-15T23:20:27.591Z,101999.92
2018-09-15T23:25:22.206Z,101994.84
2018-09-15T23:30:16.658Z,101996.40
2018-09-15T23:35:11.127Z,101996.14
2018-09-15T23:40:05.768Z,101985.34
2018-09-15T23:45:00.660Z,101983.84
2018-09-15T23:49:55.402Z,101981.91
2018-09-15T23:54:50.897Z,101977.66
2018-09-15T23:59:45.592Z,101973.02
